createdAt,value
2017-09-22T00:00:04.322Z,8.82
2017-09-22T00:02:31.873Z,9.82
2017-09-22T00:04:59.409Z,10.07
2017-09-22T00:07:27.713Z,9.25
2017-09-22T00:09:55.252Z,9.95
2017-09-22T00:12:23.567Z,9.98
2017-09-22T00:14:51.108Z,10.98
2017-09-22T00:17:18.640Z,9.98
2017-09-22T00:19:46.963Z,11.25
2017-09-22T00:22:14.524Z,11.07
2017-09-22T00:24:42.052Z,10.05
2017-09-22T00:27:09.581Z,10.88
2017-09-22T00:29:37.129Z,9.80
2017-09-22T00:32:04.669Z,10.90
2017-09-22T00:34:32.213Z,11.45
2017-09-22T00:36:59.753Z,10.38
2017-09-22T00:39:27.309Z,10.90
2017-09-22T00:41:54.853Z,10.70
2017-09-22T00:44:22.397Z,12.27
2017-09-22T00:46:49.941Z,11.93
2017-09-22T00:49:17.481Z,10.80
2017-09-22T00:51:45.046Z,10.73
2017-09-22T00:54:12.580Z,10.57
2017-09-22T00:56:40.894Z,10.77
2017-09-22T00:59:08.454Z,10.73
2017-09-22T01:01:35.990Z,10.57
2017-09-22T01:04:04.320Z,9.90
2017-09-22T01:06:31.847Z,11.77
2017-09-22T01:08:59.398Z,9.77
2017-09-22T01:11:26.926Z,10.55
2017-09-22T01:13:55.242Z,11.45
2017-09-22T01:16:22.818Z,10.65
2017-09-22T01:18:50.372Z,11.07
2017-09-22T01:21:17.939Z,12.48
2017-09-22T01:23:45.501Z,11.88
2017-09-22T01:26:13.037Z,12.05
2017-09-22T01:28:40.565Z,12.65
2017-09-22T01:31:08.130Z,10.95
2017-09-22T01:33:35.661Z,10.00
2017-09-22T01:36:03.214Z,10.00
2017-09-22T01:38:30.748Z,11.30
2017-09-22T01:40:59.031Z,11.07
2017-09-22T01:43:26.581Z,10.10
2017-09-22T01:45:54.125Z,11.18
2017-09-22T01:48:22.441Z,9.48
2017-09-22T01:50:49.982Z,11.95
2017-09-22T01:53:17.549Z,10.15
2017-09-22T01:55:45.095Z,10.82
2017-09-22T01:58:12.649Z,10.55
2017-09-22T02:00:40.193Z,11.05
2017-09-22T02:03:08.490Z,10.80
2017-09-22T02:05:36.049Z,10.23
2017-09-22T02:08:03.581Z,9.40
2017-09-22T02:10:31.900Z,9.35
2017-09-22T02:12:59.432Z,8.32
2017-09-22T02:15:26.990Z,8.30
2017-09-22T02:17:55.290Z,8.80
2017-09-22T02:20:22.817Z,9.77
2017-09-22T02:22:51.137Z,9.18
2017-09-22T02:25:18.677Z,11.10
2017-09-22T02:27:46.217Z,10.77
2017-09-22T02:30:14.609Z,10.10
2017-09-22T02:32:42.161Z,10.80
2017-09-22T02:35:09.701Z,10.18
2017-09-22T02:37:37.242Z,8.88
2017-09-22T02:40:04.789Z,10.13
2017-09-22T02:42:32.334Z,10.13
2017-09-22T02:44:59.877Z,9.35
2017-09-22T02:47:27.400Z,10.05
2017-09-22T02:49:55.723Z,9.98
2017-09-22T02:52:23.266Z,9.57
2017-09-22T02:54:50.823Z,11.18
2017-09-22T02:57:18.381Z,10.50
2017-09-22T02:59:45.909Z,10.32
2017-09-22T03:02:14.229Z,11.20
2017-09-22T03:04:41.761Z,11.95
2017-09-22T03:07:09.309Z,12.52
2017-09-22T03:09:37.597Z,11.57
2017-09-22T03:12:05.148Z,13.23
2017-09-22T03:14:32.705Z,13.35
2017-09-22T03:17:00.240Z,11.00
2017-09-22T03:19:27.797Z,12.30
2017-09-22T03:21:55.331Z,10.77
2017-09-22T03:24:22.884Z,12.48
2017-09-22T03:26:50.419Z,10.85
2017-09-22T03:29:17.945Z,10.90
2017-09-22T03:31:45.502Z,11.02
2017-09-22T03:34:13.034Z,9.90
2017-09-22T03:36:40.581Z,10.13
2017-09-22T03:39:08.116Z,11.10
2017-09-22T03:41:35.671Z,10.77
2017-09-22T03:44:03.230Z,10.93
2017-09-22T03:46:30.777Z,11.10
2017-09-22T03:48:58.305Z,11.25
2017-09-22T03:51:26.603Z,10.95
2017-09-22T03:53:54.157Z,11.12
2017-09-22T03:56:21.685Z,11.20
2017-09-22T03:58:50.006Z,11.63
2017-09-22T04:01:17.544Z,11.57
2017-09-22T04:03:45.101Z,12.13
2017-09-22T04:06:12.643Z,11.77
2017-09-22T04:08:40.987Z,10.73
2017-09-22T04:11:08.536Z,10.82
2017-09-22T04:13:36.057Z,10.60
2017-09-22T04:16:03.609Z,11.38
2017-09-22T04:18:31.897Z,12.80
2017-09-22T04:20:59.456Z,11.65
2017-09-22T04:23:26.993Z,13.20
2017-09-22T04:25:55.315Z,11.07
2017-09-22T04:28:22.877Z,11.57
2017-09-22T04:30:50.416Z,12.82
2017-09-22T04:33:17.972Z,13.60
2017-09-22T04:35:46.273Z,12.90
2017-09-22T04:38:13.806Z,12.13
2017-09-22T04:40:41.393Z,12.75
2017-09-22T04:43:08.925Z,13.45
2017-09-22T04:45:36.471Z,13.20
2017-09-22T04:48:05.305Z,13.80
2017-09-22T04:50:32.854Z,12.73
2017-09-22T04:53:00.379Z,13.05
2017-09-22T04:55:28.701Z,12.82
2017-09-22T04:57:57.242Z,12.35
2017-09-22T05:00:25.537Z,13.20
2017-09-22T05:02:53.089Z,13.77
2017-09-22T05:05:21.402Z,12.75
2017-09-22T05:07:48.946Z,14.65
2017-09-22T05:10:16.479Z,13.23
2017-09-22T05:12:44.797Z,13.43
2017-09-22T05:15:12.326Z,11.63
2017-09-22T05:17:40.649Z,12.43
2017-09-22T05:20:08.173Z,13.10
2017-09-22T05:22:35.723Z,13.57
2017-09-22T05:25:03.252Z,12.90
2017-09-22T05:27:30.781Z,13.15
2017-09-22T05:29:58.337Z,12.88
2017-09-22T05:32:25.878Z,12.10
2017-09-22T05:34:53.410Z,13.93
2017-09-22T05:37:21.727Z,12.50
2017-09-22T05:39:49.288Z,13.18
2017-09-22T05:42:16.822Z,13.52
2017-09-22T05:44:44.351Z,11.40
2017-09-22T05:47:11.910Z,12.43
2017-09-22T05:49:39.443Z,11.85
2017-09-22T05:52:06.989Z,12.23
2017-09-22T05:54:34.509Z,13.15
2017-09-22T05:57:02.841Z,13.90
2017-09-22T05:59:30.369Z,11.70
2017-09-22T06:01:57.914Z,12.00
2017-09-22T06:04:25.442Z,13.02
2017-09-22T06:06:53.757Z,12.15
2017-09-22T06:09:21.318Z,12.63
2017-09-22T06:11:48.873Z,11.45
2017-09-22T06:14:16.455Z,11.20
2017-09-22T06:16:43.987Z,11.77
2017-09-22T06:19:11.534Z,10.80
2017-09-22T06:21:39.829Z,11.25
2017-09-22T06:24:10.617Z,11.85
2017-09-22T06:26:39.067Z,12.45
2017-09-22T06:29:06.641Z,10.80
2017-09-22T06:31:34.184Z,13.48
2017-09-22T06:34:01.853Z,13.82
2017-09-22T06:36:29.384Z,12.20
2017-09-22T06:38:57.239Z,12.40
2017-09-22T06:41:25.560Z,11.75
2017-09-22T06:43:53.094Z,12.27
2017-09-22T06:46:20.640Z,12.60
2017-09-22T06:48:48.933Z,11.50
2017-09-22T06:51:16.510Z,11.75
2017-09-22T06:53:44.041Z,11.27
2017-09-22T06:56:12.372Z,10.27
2017-09-22T06:58:39.922Z,11.48
2017-09-22T07:01:07.449Z,10.30
2017-09-22T07:03:35.023Z,10.48
2017-09-22T07:06:02.552Z,9.85
2017-09-22T07:08:30.870Z,10.25
2017-09-22T07:10:58.417Z,10.55
2017-09-22T07:13:26.943Z,11.63
2017-09-22T07:15:54.513Z,12.23
2017-09-22T07:18:23.250Z,10.52
2017-09-22T07:20:50.825Z,12.05
2017-09-22T07:23:18.366Z,11.57
2017-09-22T07:25:45.930Z,11.63
2017-09-22T07:28:13.473Z,10.57
2017-09-22T07:30:41.008Z,10.10
2017-09-22T07:33:09.322Z,8.90
2017-09-22T07:35:36.869Z,9.65
2017-09-22T07:38:04.424Z,9.52
2017-09-22T07:40:31.974Z,11.15
2017-09-22T07:42:59.526Z,10.30
2017-09-22T07:45:27.841Z,11.07
2017-09-22T07:47:55.409Z,10.98
2017-09-22T07:50:22.936Z,9.88
2017-09-22T07:52:50.496Z,10.27
2017-09-22T07:55:18.138Z,9.55
2017-09-22T07:57:46.491Z,9.95
2017-09-22T08:00:14.033Z,7.90
2017-09-22T08:02:41.597Z,8.60
2017-09-22T08:05:09.165Z,8.37
2017-09-22T08:07:36.710Z,6.80
2017-09-22T08:10:04.250Z,7.27
2017-09-22T08:12:31.781Z,8.27
2017-09-22T08:15:00.112Z,8.50
2017-09-22T08:17:27.656Z,7.80
2017-09-22T08:19:55.204Z,8.53
2017-09-22T08:22:22.740Z,7.20
2017-09-22T08:24:51.040Z,8.50
2017-09-22T08:27:18.579Z,8.27
2017-09-22T08:29:46.896Z,8.70
2017-09-22T08:32:14.461Z,7.33
2017-09-22T08:34:41.996Z,8.20
2017-09-22T08:37:09.541Z,8.37
2017-09-22T08:39:37.838Z,8.23
2017-09-22T08:42:05.381Z,8.10
2017-09-22T08:44:32.930Z,8.23
2017-09-22T08:47:01.230Z,8.30
2017-09-22T08:49:28.783Z,7.90
2017-09-22T08:51:56.333Z,7.90
2017-09-22T08:54:24.622Z,7.50
2017-09-22T08:56:52.169Z,7.10
2017-09-22T08:59:20.473Z,6.17
2017-09-22T09:01:48.045Z,7.00
2017-09-22T09:04:15.570Z,6.50
2017-09-22T09:06:43.120Z,7.33
2017-09-22T09:09:11.410Z,7.03
2017-09-22T09:11:38.962Z,7.40
2017-09-22T09:14:06.553Z,7.00
2017-09-22T09:16:34.089Z,7.07
2017-09-22T09:19:01.653Z,6.60
2017-09-22T09:21:29.206Z,5.60
2017-09-22T09:23:56.765Z,6.67
2017-09-22T09:26:24.317Z,5.90
2017-09-22T09:28:51.877Z,6.70
2017-09-22T09:31:19.438Z,6.70
2017-09-22T09:33:46.968Z,6.30
2017-09-22T09:36:14.527Z,7.40
2017-09-22T09:38:42.122Z,6.00
2017-09-22T09:41:09.637Z,6.67
2017-09-22T09:43:37.186Z,7.47
2017-09-22T09:46:05.505Z,6.67
2017-09-22T09:48:33.044Z,7.10
2017-09-22T09:51:00.584Z,6.27
2017-09-22T09:53:28.132Z,6.50
2017-09-22T09:55:55.694Z,5.63
2017-09-22T09:58:23.988Z,5.90
2017-09-22T10:00:51.586Z,6.23
2017-09-22T10:03:19.120Z,5.40
2017-09-22T10:05:46.653Z,5.30
2017-09-22T10:08:14.198Z,5.17
2017-09-22T10:10:41.758Z,6.20
2017-09-22T10:13:09.280Z,4.90
2017-09-22T10:15:36.843Z,6.00
2017-09-22T10:18:04.373Z,5.70
2017-09-22T10:20:32.662Z,5.40
2017-09-22T10:23:00.992Z,5.27
2017-09-22T10:25:28.532Z,4.50
2017-09-22T10:27:56.081Z,4.70
2017-09-22T10:30:23.625Z,5.33
2017-09-22T10:32:51.158Z,5.07
2017-09-22T10:35:18.698Z,5.40
2017-09-22T10:37:46.241Z,4.60
2017-09-22T10:40:13.802Z,4.47
2017-09-22T10:42:41.337Z,4.30
2017-09-22T10:45:08.876Z,4.27
2017-09-22T10:47:37.177Z,4.20
2017-09-22T10:50:04.716Z,5.00
2017-09-22T10:52:32.260Z,4.10
2017-09-22T10:54:59.793Z,4.43
2017-09-22T10:57:27.353Z,3.77
2017-09-22T10:59:54.897Z,4.27
2017-09-22T11:02:22.461Z,5.10
2017-09-22T11:04:50.010Z,3.57
2017-09-22T11:07:18.334Z,3.83
2017-09-22T11:09:45.869Z,3.80
2017-09-22T11:12:13.417Z,3.57
2017-09-22T11:14:41.211Z,4.57
2017-09-22T11:17:08.755Z,3.20
2017-09-22T11:19:37.056Z,3.70
2017-09-22T11:22:04.617Z,3.17
2017-09-22T11:24:32.143Z,4.00
2017-09-22T11:27:00.482Z,3.10
2017-09-22T11:29:28.013Z,3.63
2017-09-22T11:31:55.103Z,3.00
2017-09-22T11:34:22.656Z,4.93
2017-09-22T11:36:50.205Z,4.30
2017-09-22T11:39:17.771Z,4.17
2017-09-22T11:41:45.305Z,3.67
2017-09-22T11:44:12.852Z,3.07
2017-09-22T11:46:40.381Z,3.17
2017-09-22T11:49:07.904Z,3.50
2017-09-22T11:51:35.454Z,3.10
2017-09-22T11:54:02.976Z,3.50
2017-09-22T11:56:31.304Z,3.70
2017-09-22T11:58:58.836Z,3.07
2017-09-22T12:01:26.409Z,3.53
2017-09-22T12:03:53.954Z,4.23
2017-09-22T12:06:23.013Z,4.27
2017-09-22T12:08:50.576Z,4.30
2017-09-22T12:11:18.122Z,3.53
2017-09-22T12:13:45.665Z,4.00
2017-09-22T12:16:13.197Z,3.30
2017-09-22T12:18:40.745Z,4.00
2017-09-22T12:21:08.317Z,4.10
2017-09-22T12:23:35.852Z,3.70
2017-09-22T12:26:03.414Z,2.70
2017-09-22T12:28:30.951Z,3.13
2017-09-22T12:30:58.512Z,3.37
2017-09-22T12:33:26.054Z,3.40
2017-09-22T12:35:53.589Z,2.87
2017-09-22T12:38:21.910Z,2.70
2017-09-22T12:40:49.446Z,2.83
2017-09-22T12:43:17.041Z,3.17
2017-09-22T12:45:44.572Z,2.63
2017-09-22T12:48:12.115Z,3.17
2017-09-22T12:50:39.689Z,3.10
2017-09-22T12:53:07.217Z,2.80
2017-09-22T12:55:34.761Z,3.00
2017-09-22T12:58:02.333Z,2.80
2017-09-22T13:00:29.879Z,2.97
2017-09-22T13:02:57.410Z,3.10
2017-09-22T13:05:25.751Z,2.97
2017-09-22T13:07:53.335Z,3.33
2017-09-22T13:10:20.952Z,3.70
2017-09-22T13:12:48.533Z,4.00
2017-09-22T13:15:16.079Z,2.93
2017-09-22T13:17:43.629Z,3.53
2017-09-22T13:20:11.178Z,3.33
2017-09-22T13:22:38.701Z,3.17
2017-09-22T13:25:07.050Z,3.60
2017-09-22T13:27:34.581Z,3.07
2017-09-22T13:30:02.149Z,2.60
2017-09-22T13:32:29.688Z,3.07
2017-09-22T13:34:57.265Z,3.43
2017-09-22T13:37:24.822Z,4.17
2017-09-22T13:39:52.350Z,4.03
2017-09-22T13:42:20.662Z,4.00
2017-09-22T13:44:48.188Z,3.63
2017-09-22T13:47:15.743Z,2.90
2017-09-22T13:49:43.307Z,3.70
2017-09-22T13:52:10.860Z,4.27
2017-09-22T13:54:38.385Z,3.40
2017-09-22T13:57:05.950Z,3.57
2017-09-22T13:59:33.480Z,3.80
2017-09-22T14:02:01.795Z,3.37
2017-09-22T14:04:29.334Z,3.90
2017-09-22T14:06:56.876Z,3.57
2017-09-22T14:09:25.185Z,4.10
2017-09-22T14:11:52.727Z,4.13
2017-09-22T14:14:20.255Z,4.50
2017-09-22T14:16:47.824Z,5.80
2017-09-22T14:19:15.345Z,6.60
2017-09-22T14:21:42.917Z,3.60
2017-09-22T14:24:10.447Z,4.20
2017-09-22T14:26:38.982Z,4.40
2017-09-22T14:29:07.304Z,3.70
2017-09-22T14:31:34.851Z,4.47
2017-09-22T14:34:02.397Z,4.00
2017-09-22T14:36:30.698Z,4.30
2017-09-22T14:38:58.244Z,3.50
2017-09-22T14:41:25.768Z,4.20
2017-09-22T14:43:54.080Z,4.00
2017-09-22T14:46:21.615Z,4.40
2017-09-22T14:48:49.938Z,3.93
2017-09-22T14:51:17.465Z,5.00
2017-09-22T14:53:45.789Z,5.50
2017-09-22T14:56:13.315Z,4.27
2017-09-22T14:58:40.869Z,4.60
2017-09-22T15:01:09.166Z,4.50
2017-09-22T15:03:36.690Z,4.43
2017-09-22T15:06:05.114Z,4.73
2017-09-22T15:08:32.637Z,4.33
2017-09-22T15:11:00.197Z,4.33
2017-09-22T15:13:27.721Z,4.60
2017-09-22T15:15:56.027Z,4.83
2017-09-22T15:18:23.591Z,5.53
2017-09-22T15:20:51.145Z,4.83
2017-09-22T15:23:18.679Z,5.73
2017-09-22T15:25:47.010Z,5.20
2017-09-22T15:28:14.555Z,5.53
2017-09-22T15:30:42.124Z,5.60
2017-09-22T15:33:09.648Z,4.93
2017-09-22T15:35:37.956Z,4.77
2017-09-22T15:38:05.500Z,5.70
2017-09-22T15:40:33.046Z,4.23
2017-09-22T15:43:00.566Z,4.50
2017-09-22T15:45:28.128Z,5.03
2017-09-22T15:47:55.673Z,4.60
2017-09-22T15:50:23.997Z,4.23
2017-09-22T15:52:51.565Z,3.90
2017-09-22T15:55:19.118Z,4.57
2017-09-22T15:57:46.692Z,3.40
2017-09-22T16:00:14.223Z,3.33
2017-09-22T16:02:41.794Z,3.50
2017-09-22T16:05:09.326Z,3.17
2017-09-22T16:07:36.881Z,2.93
2017-09-22T16:10:04.417Z,2.93
2017-09-22T16:12:32.739Z,12.50
2017-09-22T16:15:00.273Z,4.10
2017-09-22T16:17:28.589Z,3.50
2017-09-22T16:19:56.156Z,3.20
2017-09-22T16:22:23.683Z,3.53
2017-09-22T16:24:51.228Z,2.70
2017-09-22T16:27:19.534Z,2.30
2017-09-22T16:29:47.094Z,2.77
2017-09-22T16:32:14.629Z,4.40
2017-09-22T16:34:42.189Z,4.87
2017-09-22T16:37:09.741Z,4.73
2017-09-22T16:39:37.281Z,3.70
2017-09-22T16:42:05.631Z,2.70
2017-09-22T16:44:33.170Z,3.10
2017-09-22T16:47:00.750Z,2.90
2017-09-22T16:49:28.286Z,2.73
2017-09-22T16:51:55.841Z,3.60
2017-09-22T16:54:23.384Z,2.47
2017-09-22T16:56:51.705Z,3.27
2017-09-22T16:59:19.237Z,3.17
2017-09-22T17:01:46.825Z,3.30
2017-09-22T17:04:14.380Z,3.40
2017-09-22T17:06:41.918Z,2.97
2017-09-22T17:09:09.476Z,3.07
2017-09-22T17:11:37.015Z,2.90
2017-09-22T17:14:04.587Z,3.30
2017-09-22T17:16:32.150Z,3.63
2017-09-22T17:18:59.717Z,4.00
2017-09-22T17:21:27.262Z,3.90
2017-09-22T17:23:55.581Z,3.20
2017-09-22T17:26:23.117Z,3.40
2017-09-22T17:28:50.697Z,3.80
2017-09-22T17:31:18.260Z,3.73
2017-09-22T17:33:45.801Z,4.20
2017-09-22T17:36:13.356Z,5.20
2017-09-22T17:38:40.924Z,5.20
2017-09-22T17:41:08.481Z,5.37
2017-09-22T17:43:36.014Z,4.87
2017-09-22T17:46:04.216Z,5.27
2017-09-22T17:48:31.879Z,4.20
2017-09-22T17:50:59.427Z,4.47
2017-09-22T17:53:26.960Z,4.07
2017-09-22T17:55:55.288Z,4.60
2017-09-22T17:58:22.834Z,4.80
2017-09-22T18:00:50.375Z,4.47
2017-09-22T18:03:17.925Z,4.10
2017-09-22T18:05:45.461Z,4.70
2017-09-22T18:08:13.009Z,4.47
2017-09-22T18:10:40.554Z,4.10
2017-09-22T18:13:08.115Z,4.00
2017-09-22T18:15:35.654Z,4.20
2017-09-22T18:18:03.202Z,4.70
2017-09-22T18:20:30.749Z,4.50
2017-09-22T18:22:58.284Z,4.90
2017-09-22T18:25:25.877Z,4.57
2017-09-22T18:27:53.428Z,5.00
2017-09-22T18:30:20.966Z,4.37
2017-09-22T18:32:49.271Z,4.70
2017-09-22T18:35:16.851Z,4.60
2017-09-22T18:37:44.417Z,4.07
2017-09-22T18:40:11.977Z,5.40
2017-09-22T18:42:39.506Z,4.93
2017-09-22T18:45:07.081Z,4.60
2017-09-22T18:47:34.638Z,4.83
2017-09-22T18:50:02.170Z,4.97
2017-09-22T18:52:30.508Z,3.83
2017-09-22T18:54:58.047Z,5.80
2017-09-22T18:57:25.605Z,5.13
2017-09-22T18:59:53.159Z,5.00
2017-09-22T19:02:20.695Z,6.13
2017-09-22T19:04:48.254Z,5.80
2017-09-22T19:07:16.663Z,5.57
2017-09-22T19:09:44.224Z,4.93
2017-09-22T19:12:11.762Z,7.50
2017-09-22T19:14:39.286Z,7.00
2017-09-22T19:17:06.850Z,5.70
2017-09-22T19:19:35.180Z,5.60
2017-09-22T19:22:02.726Z,6.67
2017-09-22T19:24:30.288Z,5.75
2017-09-22T19:26:57.828Z,6.43
2017-09-22T19:29:25.408Z,6.53
2017-09-22T19:31:52.944Z,7.20
2017-09-22T19:34:21.316Z,7.60
2017-09-22T19:36:49.643Z,7.30
2017-09-22T19:39:17.213Z,6.93
2017-09-22T19:41:44.774Z,9.02
2017-09-22T19:44:12.329Z,7.20
2017-09-22T19:46:39.877Z,8.57
2017-09-22T19:49:07.412Z,8.15
2017-09-22T19:51:34.997Z,7.70
2017-09-22T19:54:02.534Z,7.80
2017-09-22T19:56:30.089Z,7.78
2017-09-22T19:58:57.626Z,6.80
2017-09-22T20:01:25.969Z,8.05
2017-09-22T20:03:53.506Z,9.07
2017-09-22T20:06:21.053Z,8.75
2017-09-22T20:08:48.625Z,8.27
2017-09-22T20:11:16.166Z,8.30
2017-09-22T20:13:43.737Z,8.70
2017-09-22T20:16:11.270Z,7.28
2017-09-22T20:18:39.593Z,8.10
2017-09-22T20:21:07.148Z,8.05
2017-09-22T20:23:34.732Z,8.30
2017-09-22T20:26:02.317Z,8.40
2017-09-22T20:28:30.626Z,8.85
2017-09-22T20:30:58.326Z,9.35
2017-09-22T20:33:25.882Z,9.68
2017-09-22T20:35:53.530Z,8.95
2017-09-22T20:38:21.062Z,8.85
2017-09-22T20:40:48.596Z,9.40
2017-09-22T20:43:16.924Z,9.75
2017-09-22T20:45:44.469Z,10.70
2017-09-22T20:48:12.033Z,10.43
2017-09-22T20:50:39.581Z,10.48
2017-09-22T20:53:07.117Z,9.95
2017-09-22T20:55:35.434Z,8.63
2017-09-22T20:58:02.985Z,9.68
2017-09-22T21:00:30.549Z,9.65
2017-09-22T21:02:58.081Z,9.98
2017-09-22T21:05:26.418Z,10.32
2017-09-22T21:07:53.960Z,10.73
2017-09-22T21:10:21.524Z,9.80
2017-09-22T21:12:49.182Z,12.45
2017-09-22T21:15:16.749Z,10.60
2017-09-22T21:17:44.361Z,11.35
2017-09-22T21:20:12.670Z,10.40
2017-09-22T21:22:40.228Z,11.80
2017-09-22T21:25:07.793Z,10.35
2017-09-22T21:27:35.353Z,11.68
2017-09-22T21:30:02.914Z,11.48
2017-09-22T21:32:32.237Z,10.20
2017-09-22T21:34:59.798Z,10.38
2017-09-22T21:37:27.345Z,9.45
2017-09-22T21:39:54.942Z,12.05
2017-09-22T21:42:23.266Z,10.75
2017-09-22T21:44:50.819Z,10.48
2017-09-22T21:47:18.361Z,10.73
2017-09-22T21:49:46.662Z,11.45
2017-09-22T21:52:14.241Z,11.00
2017-09-22T21:54:42.104Z,10.50
2017-09-22T21:57:09.764Z,10.90
2017-09-22T21:59:37.389Z,10.05
2017-09-22T22:02:05.805Z,10.00
2017-09-22T22:04:38.955Z,11.05
2017-09-22T22:07:13.153Z,9.85
2017-09-22T22:09:40.748Z,9.48
2017-09-22T22:12:08.354Z,10.52
2017-09-22T22:14:35.932Z,9.93
2017-09-22T22:17:03.541Z,9.88
2017-09-22T22:19:31.222Z,10.43
2017-09-22T22:21:58.816Z,10.05
2017-09-22T22:24:26.406Z,9.80
2017-09-22T22:26:54.737Z,9.70
2017-09-22T22:29:22.345Z,8.98
2017-09-22T22:31:50.713Z,9.65
2017-09-22T22:34:19.090Z,9.18
2017-09-22T22:50:09.784Z,8.35
2017-09-22T22:52:38.125Z,9.43
2017-09-22T22:55:05.712Z,8.35
2017-09-22T22:57:33.302Z,9.25
2017-09-22T23:00:00.896Z,9.07
2017-09-22T23:02:28.493Z,9.32
2017-09-22T23:04:56.083Z,10.07
2017-09-22T23:07:23.700Z,9.55
2017-09-22T23:09:51.285Z,8.43
2017-09-22T23:12:19.669Z,9.07
2017-09-22T23:14:48.034Z,8.80
2017-09-22T23:17:15.650Z,10.02
2017-09-22T23:19:43.336Z,8.48
2017-09-22T23:22:10.949Z,9.35
2017-09-22T23:24:38.552Z,10.02
2017-09-22T23:27:06.149Z,9.45
2017-09-22T23:29:34.532Z,9.18
2017-09-22T23:32:02.912Z,9.90
2017-09-22T23:34:31.295Z,10.13
2017-09-22T23:36:59.707Z,9.55
2017-09-22T23:39:27.281Z,9.95
2017-09-22T23:41:54.887Z,10.65
2017-09-22T23:44:23.241Z,10.00
2017-09-22T23:46:50.845Z,9.45
2017-09-22T23:49:18.427Z,10.40
2017-09-22T23:51:46.035Z,11.25
2017-09-22T23:54:13.625Z,10.07
2017-09-22T23:56:41.235Z,10.77
2017-09-22T23:59:08.825Z,10.23
